createdAt,value
2023-02-16T00:01:35.165Z,101858.44
2023-02-16T00:04:02.164Z,101859.22
2023-02-16T00:06:29.521Z,101862.47
2023-02-16T00:08:57.059Z,101861.41
2023-02-16T00:11:53.188Z,101857.69
2023-02-16T00:14:23.464Z,101851.53
2023-02-16T00:16:50.636Z,101857.13
2023-02-16T00:19:23.023Z,101857.13
2023-02-16T00:21:50.959Z,101851.78
2023-02-16T00:24:17.597Z,101860.31
2023-02-16T00:26:45.806Z,101846.97
2023-02-16T00:29:17.554Z,101857.13
2023-02-16T00:31:44.144Z,101859.53
2023-02-16T00:34:33.126Z,101848.56
2023-02-16T00:37:02.950Z,101857.38
2023-02-16T00:39:29.522Z,101857.63
2023-02-16T00:41:58.571Z,101855.78
2023-02-16T00:44:42.184Z,101851.50
2023-02-16T00:47:22.067Z,101855.22
2023-02-16T00:49:51.155Z,101861.38
2023-02-16T00:52:30.233Z,101857.88
2023-02-16T00:54:57.873Z,101857.59
2023-02-16T00:57:25.232Z,101858.69
2023-02-16T00:59:58.399Z,101856.81
2023-02-16T01:02:24.932Z,101853.34
2023-02-16T01:04:51.496Z,101844.25
2023-02-16T01:07:37.435Z,101844.25
2023-02-16T01:10:24.734Z,101846.41
2023-02-16T01:12:51.253Z,101843.97
2023-02-16T01:15:19.132Z,101842.91
2023-02-16T01:17:45.637Z,101846.41
2023-02-16T01:20:20.872Z,101842.66
2023-02-16T01:22:47.641Z,101833.81
2023-02-16T01:25:14.785Z,101838.88
2023-02-16T01:27:42.060Z,101847.94
2023-02-16T01:30:15.054Z,101847.94
2023-02-16T01:32:43.455Z,101842.06
2023-02-16T01:35:10.421Z,101837.25
2023-02-16T01:37:36.955Z,101835.09
2023-02-16T01:40:04.051Z,101839.94
2023-02-16T01:42:49.720Z,101836.75
2023-02-16T01:45:20.188Z,101833.25
2023-02-16T01:47:53.366Z,101837.03
2023-02-16T01:50:23.487Z,101821.81
2023-02-16T01:52:55.882Z,101826.63
2023-02-16T01:55:26.086Z,101830.13
2023-02-16T01:57:57.817Z,101827.47
2023-02-16T02:00:54.740Z,101824.53
2023-02-16T02:03:43.772Z,101831.78
2023-02-16T02:06:12.670Z,101825.63
2023-02-16T02:09:08.798Z,101814.41
2023-02-16T02:11:41.088Z,101812.28
2023-02-16T02:14:25.279Z,101822.41
2023-02-16T02:17:01.701Z,101814.97
2023-02-16T02:19:32.645Z,101818.69
2023-02-16T02:22:43.428Z,101811.22
2023-02-16T02:25:45.167Z,101812.28
2023-02-16T02:28:19.094Z,101814.97
2023-02-16T02:30:51.111Z,101809.34
2023-02-16T02:33:30.126Z,101810.69
2023-02-16T02:36:16.268Z,101801.59
2023-02-16T02:39:01.724Z,101797.88
2023-02-16T02:42:05.641Z,101801.34
2023-02-16T02:44:48.271Z,101786.63
2023-02-16T02:47:14.871Z,101797.06
2023-02-16T02:49:54.690Z,101793.56
2023-02-16T02:52:22.344Z,101783.69
2023-02-16T02:55:08.078Z,101788.75
2023-02-16T02:58:00.236Z,101792.50
2023-02-16T03:00:43.745Z,101786.63
2023-02-16T03:03:19.356Z,101786.34
2023-02-16T03:05:50.340Z,101780.75
2023-02-16T03:08:17.658Z,101780.22
2023-02-16T03:11:11.570Z,101785.00
2023-02-16T03:13:42.131Z,101782.91
2023-02-16T03:16:13.868Z,101779.16
2023-02-16T03:19:00.082Z,101769.53
2023-02-16T03:21:46.362Z,101777.00
2023-02-16T03:24:35.642Z,101781.28
2023-02-16T03:27:21.572Z,101779.69
2023-02-16T03:29:50.294Z,101777.56
2023-02-16T03:32:17.182Z,101781.56
2023-02-16T03:34:43.854Z,101782.63
2023-02-16T03:37:10.656Z,101788.25
2023-02-16T03:39:57.190Z,101783.72
2023-02-16T03:42:24.369Z,101780.22
2023-02-16T03:44:51.681Z,101778.91
2023-02-16T03:47:18.285Z,101779.69
2023-02-16T03:49:44.869Z,101781.31
2023-02-16T03:52:12.338Z,101784.78
2023-02-16T03:54:38.929Z,101779.44
2023-02-16T03:57:05.449Z,101782.09
2023-02-16T03:59:32.034Z,101779.94
2023-02-16T04:01:59.385Z,101779.16
2023-02-16T04:04:26.014Z,101776.22
2023-02-16T04:06:52.491Z,101780.25
2023-02-16T04:09:19.058Z,101781.84
2023-02-16T04:12:04.109Z,101787.72
2023-02-16T04:14:30.596Z,101787.47
2023-02-16T04:16:57.114Z,101781.84
2023-02-16T04:19:24.773Z,101776.22
2023-02-16T04:21:53.044Z,101781.84
2023-02-16T04:24:19.753Z,101776.50
2023-02-16T04:26:46.228Z,101770.91
2023-02-16T04:29:12.706Z,101766.84
2023-02-16T04:31:39.382Z,101779.19
2023-02-16T04:34:06.230Z,101774.88
2023-02-16T04:36:34.313Z,101778.09
2023-02-16T04:39:00.944Z,101782.38
2023-02-16T04:41:27.508Z,101780.50
2023-02-16T04:43:54.049Z,101779.16
2023-02-16T04:46:20.617Z,101778.06
2023-02-16T04:48:47.249Z,101772.22
2023-02-16T04:51:13.730Z,101771.13
2023-02-16T04:53:40.260Z,101766.88
2023-02-16T04:56:10.755Z,101766.31
2023-02-16T04:58:37.314Z,101762.59
2023-02-16T05:01:04.249Z,101771.38
2023-02-16T05:03:31.319Z,101771.38
2023-02-16T05:05:57.828Z,101772.97
2023-02-16T05:08:24.322Z,101770.06
2023-02-16T05:11:10.790Z,101780.22
2023-02-16T05:13:55.971Z,101779.13
2023-02-16T05:16:23.227Z,101783.97
2023-02-16T05:18:49.721Z,101782.31
2023-02-16T05:21:31.349Z,101782.31
2023-02-16T05:24:06.246Z,101791.72
2023-02-16T05:26:33.790Z,101795.16
2023-02-16T05:29:01.156Z,101798.06
2023-02-16T05:31:28.552Z,101794.88
2023-02-16T05:33:55.615Z,101790.84
2023-02-16T05:36:22.717Z,101790.59
2023-02-16T05:38:49.310Z,101781.78
2023-02-16T05:41:23.516Z,101773.75
2023-02-16T05:43:58.530Z,101779.06
2023-02-16T05:46:26.504Z,101781.78
2023-02-16T05:48:54.059Z,101783.38
2023-02-16T05:51:21.342Z,101788.72
2023-02-16T05:53:48.142Z,101791.91
2023-02-16T05:56:14.709Z,101787.09
2023-02-16T05:58:41.204Z,101790.03
2023-02-16T06:01:07.790Z,101796.97
2023-02-16T06:03:35.965Z,101796.97
2023-02-16T06:06:04.002Z,101805.00
2023-02-16T06:08:31.277Z,101797.78
2023-02-16T06:10:58.039Z,101795.63
2023-02-16T06:13:24.851Z,101792.69
2023-02-16T06:15:53.292Z,101795.09
2023-02-16T06:18:19.855Z,101795.88
2023-02-16T06:20:46.407Z,101796.97
2023-02-16T06:23:13.690Z,101794.53
2023-02-16T06:25:50.119Z,101799.88
2023-02-16T06:28:16.631Z,101794.81
2023-02-16T06:30:43.157Z,101800.16
2023-02-16T06:33:09.759Z,101803.63
2023-02-16T06:35:36.658Z,101803.88
2023-02-16T06:38:03.283Z,101809.22
2023-02-16T06:40:29.830Z,101803.38
2023-02-16T06:42:56.346Z,101804.16
2023-02-16T06:45:22.928Z,101809.00
2023-02-16T06:47:49.947Z,101810.09
2023-02-16T06:50:17.682Z,101805.28
2023-02-16T06:52:44.304Z,101810.34
2023-02-16T06:55:11.037Z,101800.75
2023-02-16T06:57:37.996Z,101807.97
2023-02-16T07:00:07.703Z,101810.66
2023-02-16T07:02:35.820Z,101812.81
2023-02-16T07:05:03.483Z,101817.09
2023-02-16T07:07:34.158Z,101817.13
2023-02-16T07:10:02.769Z,101813.94
2023-02-16T07:12:29.490Z,101815.00
2023-02-16T07:14:56.309Z,101811.25
2023-02-16T07:17:22.829Z,101807.00
2023-02-16T07:19:49.356Z,101808.59
2023-02-16T07:22:16.714Z,101812.09
2023-02-16T07:24:43.525Z,101811.00
2023-02-16T07:27:10.078Z,101804.00
2023-02-16T07:29:36.612Z,101810.09
2023-02-16T07:32:03.731Z,101801.47
2023-02-16T07:34:30.702Z,101804.63
2023-02-16T07:36:57.466Z,101802.44
2023-02-16T07:39:24.204Z,101805.59
2023-02-16T07:41:53.043Z,101807.19
2023-02-16T07:44:19.593Z,101801.34
2023-02-16T07:46:46.109Z,101799.59
2023-02-16T07:49:12.645Z,101798.41
2023-02-16T07:51:40.593Z,101805.31
2023-02-16T07:54:07.557Z,101811.19
2023-02-16T07:56:35.440Z,101812.13
2023-02-16T07:59:02.945Z,101804.28
2023-02-16T08:01:30.554Z,101805.94
2023-02-16T08:03:57.555Z,101802.25
2023-02-16T08:06:24.572Z,101814.09
2023-02-16T08:08:51.392Z,101818.69
2023-02-16T08:11:23.473Z,101815.28
2023-02-16T08:13:50.274Z,101813.25
2023-02-16T08:16:22.802Z,101828.53
2023-02-16T08:18:50.855Z,101831.78
2023-02-16T08:21:20.510Z,101837.47
2023-02-16T08:23:52.962Z,101839.53
2023-02-16T08:26:20.707Z,101837.75
2023-02-16T08:28:50.017Z,101838.91
2023-02-16T08:31:19.442Z,101824.94
2023-02-16T08:33:47.744Z,101824.19
2023-02-16T08:36:26.501Z,101828.22
2023-02-16T08:38:53.766Z,101816.00
2023-02-16T08:41:23.478Z,101820.03
2023-02-16T08:43:52.585Z,101815.88
2023-02-16T08:46:19.284Z,101806.88
2023-02-16T08:48:46.003Z,101814.28
2023-02-16T08:51:17.893Z,101810.63
2023-02-16T08:53:46.712Z,101815.56
2023-02-16T08:56:14.647Z,101804.88
2023-02-16T08:58:41.454Z,101805.91
2023-02-16T09:01:10.513Z,101805.34
2023-02-16T09:03:38.608Z,101813.09
2023-02-16T09:06:06.208Z,101810.81
2023-02-16T09:08:33.567Z,101810.53
2023-02-16T09:11:05.166Z,101795.78
2023-02-16T09:13:38.058Z,101800.75
2023-02-16T09:16:06.492Z,101810.34
2023-02-16T09:18:33.522Z,101795.22
2023-02-16T09:21:05.367Z,101810.84
2023-02-16T09:23:33.128Z,101812.56
2023-02-16T09:26:02.826Z,101795.66
2023-02-16T09:28:30.800Z,101804.72
2023-02-16T09:30:57.568Z,101798.97
2023-02-16T09:33:24.691Z,101814.19
2023-02-16T09:35:51.589Z,101812.34
2023-02-16T09:38:18.681Z,101798.22
2023-02-16T09:40:45.228Z,101797.69
2023-02-16T09:43:45.539Z,101799.50
2023-02-16T09:46:13.987Z,101800.44
2023-02-16T09:48:43.430Z,101798.84
2023-02-16T09:51:15.728Z,101799.81
2023-02-16T09:53:43.376Z,101797.09
2023-02-16T09:56:38.124Z,101793.41
2023-02-16T09:59:11.670Z,101783.56
2023-02-16T10:01:48.386Z,101786.84
2023-02-16T10:04:47.483Z,101790.69
2023-02-16T10:07:23.731Z,101795.91
2023-02-16T10:09:53.535Z,101796.47
2023-02-16T10:12:33.155Z,101794.63
2023-02-16T10:15:16.417Z,101795.94
2023-02-16T10:17:50.127Z,101797.84
2023-02-16T10:20:32.734Z,101804.88
2023-02-16T10:23:08.670Z,101802.06
2023-02-16T10:25:46.937Z,101806.03
2023-02-16T10:28:22.469Z,101803.53
2023-02-16T10:30:57.871Z,101792.22
2023-02-16T10:33:43.819Z,101793.47
2023-02-16T10:36:27.881Z,101794.59
2023-02-16T10:39:14.043Z,101800.66
2023-02-16T10:41:44.725Z,101786.66
2023-02-16T10:44:24.155Z,101778.13
2023-02-16T10:47:04.168Z,101774.44
2023-02-16T10:49:32.395Z,101773.06
2023-02-16T10:52:01.492Z,101768.56
2023-02-16T10:54:29.841Z,101769.56
2023-02-16T10:57:07.668Z,101766.44
2023-02-16T10:59:42.086Z,101770.06
2023-02-16T11:02:18.946Z,101761.47
2023-02-16T11:04:48.563Z,101764.84
2023-02-16T11:07:17.820Z,101757.81
2023-02-16T11:09:47.151Z,101757.09
2023-02-16T11:12:35.961Z,101761.69
2023-02-16T11:15:05.599Z,101762.47
2023-02-16T11:17:33.336Z,101762.13
2023-02-16T11:20:05.671Z,101756.78
2023-02-16T11:22:37.540Z,101763.22
2023-02-16T11:25:19.959Z,101767.34
2023-02-16T11:27:57.884Z,101759.72
2023-02-16T11:30:44.696Z,101757.31
2023-02-16T11:33:26.977Z,101741.47
2023-02-16T11:35:54.060Z,101735.88
2023-02-16T11:38:31.523Z,101736.38
2023-02-16T11:40:59.887Z,101734.97
2023-02-16T11:43:28.488Z,101730.06
2023-02-16T11:46:04.652Z,101737.81
2023-02-16T11:48:33.129Z,101733.41
2023-02-16T11:51:03.010Z,101728.28
2023-02-16T11:53:33.126Z,101724.88
2023-02-16T11:56:23.970Z,101719.22
2023-02-16T11:59:17.068Z,101711.66
2023-02-16T12:02:11.684Z,101719.69
2023-02-16T12:04:41.286Z,101718.06
2023-02-16T12:07:38.566Z,101723.53
2023-02-16T12:10:21.586Z,101718.41
2023-02-16T12:13:03.158Z,101732.13
2023-02-16T12:15:40.300Z,101722.94
2023-02-16T12:18:13.047Z,101705.75
2023-02-16T12:20:55.072Z,101704.38
2023-02-16T12:23:31.617Z,101705.16
2023-02-16T12:26:15.007Z,101703.22
2023-02-16T12:28:57.945Z,101693.78
2023-02-16T12:31:39.849Z,101695.72
2023-02-16T12:34:21.800Z,101699.25
2023-02-16T12:36:58.648Z,101694.00
2023-02-16T12:39:34.131Z,101700.09
2023-02-16T12:42:19.408Z,101697.41
2023-02-16T12:44:50.742Z,101694.47
2023-02-16T12:47:24.528Z,101693.84
2023-02-16T12:49:54.413Z,101699.41
2023-02-16T12:52:44.788Z,101694.16
2023-02-16T12:55:22.104Z,101682.00
2023-02-16T12:57:56.126Z,101688.53
2023-02-16T13:00:34.995Z,101679.38
2023-02-16T13:03:16.724Z,101678.38
2023-02-16T13:05:44.798Z,101673.56
2023-02-16T13:08:25.720Z,101670.38
2023-02-16T13:10:57.554Z,101672.38
2023-02-16T13:13:27.348Z,101664.75
2023-02-16T13:16:09.553Z,101662.59
2023-02-16T13:18:42.745Z,101660.78
2023-02-16T13:21:15.458Z,101674.66
2023-02-16T13:24:10.741Z,101663.13
2023-02-16T13:26:46.438Z,101656.13
2023-02-16T13:29:39.080Z,101666.28
2023-02-16T13:32:33.879Z,101659.69
2023-02-16T13:35:12.904Z,101660.44
2023-02-16T13:37:58.223Z,101656.63
2023-02-16T13:40:31.087Z,101658.50
2023-02-16T13:43:12.507Z,101647.50
2023-02-16T13:45:41.874Z,101656.00
2023-02-16T13:48:29.710Z,101655.84
2023-02-16T13:51:01.245Z,101654.31
2023-02-16T13:53:37.750Z,101655.69
2023-02-16T13:56:12.699Z,101657.97
2023-02-16T13:58:40.882Z,101666.41
2023-02-16T14:01:32.443Z,101663.78
2023-02-16T14:04:01.236Z,101650.63
2023-02-16T14:06:29.367Z,101642.84
2023-02-16T14:09:14.056Z,101648.66
2023-02-16T14:12:02.258Z,101644.03
2023-02-16T14:14:46.365Z,101642.88
2023-02-16T14:17:19.170Z,101649.13
2023-02-16T14:20:03.626Z,101647.69
2023-02-16T14:22:45.427Z,101647.53
2023-02-16T14:25:24.159Z,101646.94
2023-02-16T14:27:55.292Z,101648.41
2023-02-16T14:30:35.509Z,101646.53
2023-02-16T14:33:17.448Z,101642.00
2023-02-16T14:35:48.339Z,101644.53
2023-02-16T14:38:30.581Z,101649.06
2023-02-16T14:40:58.638Z,101644.59
2023-02-16T14:43:35.310Z,101641.63
2023-02-16T14:46:20.978Z,101637.88
2023-02-16T14:49:03.065Z,101645.19
2023-02-16T14:52:00.733Z,101644.63
2023-02-16T14:54:46.267Z,101639.28
2023-02-16T14:57:16.652Z,101651.44
2023-02-16T14:59:53.192Z,101651.97
2023-02-16T15:02:40.035Z,101643.97
2023-02-16T15:05:24.211Z,101642.31
2023-02-16T15:08:05.567Z,101643.31
2023-02-16T15:10:32.204Z,101641.78
2023-02-16T15:12:59.156Z,101651.09
2023-02-16T15:15:35.156Z,101640.22
2023-02-16T15:18:01.798Z,101640.81
2023-02-16T15:20:37.009Z,101645.50
2023-02-16T15:23:07.905Z,101644.56
2023-02-16T15:25:39.220Z,101646.41
2023-02-16T15:28:11.743Z,101645.88
2023-02-16T15:30:46.032Z,101639.88
2023-02-16T15:33:23.066Z,101644.47
2023-02-16T15:35:55.355Z,101640.41
2023-02-16T15:38:25.273Z,101638.28
2023-02-16T15:40:54.048Z,101640.03
2023-02-16T15:43:35.815Z,101634.16
2023-02-16T15:46:04.604Z,101626.91
2023-02-16T15:48:37.650Z,101627.94
2023-02-16T15:51:11.457Z,101622.31
2023-02-16T15:53:45.952Z,101615.53
2023-02-16T15:56:34.056Z,101620.00
2023-02-16T15:59:03.506Z,101616.72
2023-02-16T16:01:35.542Z,101610.72
2023-02-16T16:04:05.701Z,101608.25
2023-02-16T16:06:37.706Z,101605.31
2023-02-16T16:09:08.288Z,101601.25
2023-02-16T16:11:36.441Z,101600.38
2023-02-16T16:14:04.790Z,101597.41
2023-02-16T16:16:32.393Z,101588.25
2023-02-16T16:19:08.687Z,101590.41
2023-02-16T16:21:39.143Z,101598.34
2023-02-16T16:24:07.969Z,101593.56
2023-02-16T16:26:50.975Z,101589.19
2023-02-16T16:29:32.146Z,101594.50
2023-02-16T16:31:58.807Z,101591.09
2023-02-16T16:34:39.505Z,101593.16
2023-02-16T16:37:27.779Z,101588.41
2023-02-16T16:40:02.126Z,101589.84
2023-02-16T16:42:28.670Z,101586.59
2023-02-16T16:45:01.626Z,101581.50
2023-02-16T16:47:39.435Z,101579.09
2023-02-16T16:50:14.417Z,101585.91
2023-02-16T16:52:43.731Z,101579.09
2023-02-16T16:55:19.314Z,101579.31
2023-02-16T16:57:46.604Z,101571.41
2023-02-16T17:00:14.825Z,101569.69
2023-02-16T17:02:41.475Z,101566.88
2023-02-16T17:05:08.369Z,101564.69
2023-02-16T17:07:34.982Z,101572.47
2023-02-16T17:10:01.654Z,101566.34
2023-02-16T17:12:28.480Z,101562.06
2023-02-16T17:14:55.614Z,101570.31
2023-02-16T17:17:22.165Z,101569.06
2023-02-16T17:19:48.820Z,101567.22
2023-02-16T17:22:17.661Z,101575.84
2023-02-16T17:24:44.672Z,101576.16
2023-02-16T17:27:11.425Z,101575.34
2023-02-16T17:29:38.069Z,101569.47
2023-02-16T17:32:05.440Z,101576.03
2023-02-16T17:34:31.998Z,101570.13
2023-02-16T17:37:00.167Z,101580.75
2023-02-16T17:39:26.812Z,101576.00
2023-02-16T17:41:53.316Z,101580.75
2023-02-16T17:44:20.848Z,101582.72
2023-02-16T17:46:47.502Z,101576.63
2023-02-16T17:49:14.573Z,101598.31
2023-02-16T17:51:41.361Z,101598.19
2023-02-16T17:54:10.971Z,101601.13
2023-02-16T17:56:41.704Z,101599.22
2023-02-16T17:59:10.524Z,101600.97
2023-02-16T18:01:37.689Z,101599.72
2023-02-16T18:04:04.360Z,101598.91
2023-02-16T18:06:30.888Z,101596.56
2023-02-16T18:08:57.581Z,101592.72
2023-02-16T18:11:24.245Z,101587.31
2023-02-16T18:13:50.873Z,101585.72
2023-02-16T18:16:19.150Z,101588.28
2023-02-16T18:18:45.908Z,101589.41
2023-02-16T18:21:12.508Z,101592.78
2023-02-16T18:23:39.389Z,101595.03
2023-02-16T18:26:07.131Z,101591.06
2023-02-16T18:28:34.361Z,101590.94
2023-02-16T18:31:01.180Z,101591.59
2023-02-16T18:33:28.007Z,101592.25
2023-02-16T18:35:57.465Z,101586.97
2023-02-16T18:38:25.215Z,101596.91
2023-02-16T18:40:53.299Z,101594.50
2023-02-16T18:43:20.128Z,101593.56
2023-02-16T18:45:46.705Z,101590.53
2023-02-16T18:48:13.483Z,101595.47
2023-02-16T18:50:39.988Z,101591.06
2023-02-16T18:53:07.131Z,101582.91
2023-02-16T18:55:33.949Z,101580.53
2023-02-16T18:58:01.595Z,101579.28
2023-02-16T19:00:28.192Z,101579.28
2023-02-16T19:02:55.371Z,101582.34
2023-02-16T19:05:21.992Z,101581.53
2023-02-16T19:07:48.548Z,101584.56
2023-02-16T19:10:15.599Z,101576.78
2023-02-16T19:12:42.174Z,101575.97
2023-02-16T19:15:09.129Z,101572.47
2023-02-16T19:17:35.668Z,101575.38
2023-02-16T19:20:02.161Z,101578.06
2023-02-16T19:22:28.636Z,101582.56
2023-02-16T19:24:55.236Z,101587.69
2023-02-16T19:27:21.733Z,101573.69
2023-02-16T19:29:48.277Z,101582.94
2023-02-16T19:32:15.038Z,101587.69
2023-02-16T19:34:41.530Z,101586.25
2023-02-16T19:37:08.074Z,101581.19
2023-02-16T19:39:35.002Z,101583.22
2023-02-16T19:42:01.514Z,101580.50
2023-02-16T19:44:28.073Z,101582.44
2023-02-16T19:46:54.723Z,101583.22
2023-02-16T19:49:21.267Z,101580.06
2023-02-16T19:51:47.915Z,101572.56
2023-02-16T19:54:14.976Z,101570.81
2023-02-16T19:56:41.515Z,101570.00
2023-02-16T19:59:08.315Z,101574.63
2023-02-16T20:01:34.818Z,101578.31
2023-02-16T20:04:02.777Z,101571.31
2023-02-16T20:06:41.054Z,101570.53
2023-02-16T20:09:07.950Z,101575.59
2023-02-16T20:11:35.004Z,101572.75
2023-02-16T20:14:02.023Z,101577.09
2023-02-16T20:16:29.334Z,101581.38
2023-02-16T20:18:57.278Z,101572.56
2023-02-16T20:21:26.349Z,101579.75
2023-02-16T20:23:55.962Z,101579.13
2023-02-16T20:26:25.667Z,101577.34
2023-02-16T20:28:52.629Z,101566.69
2023-02-16T20:31:28.934Z,101566.03
2023-02-16T20:33:55.814Z,101560.63
2023-02-16T20:36:22.893Z,101557.91
2023-02-16T20:38:50.600Z,101556.63
2023-02-16T20:41:18.422Z,101553.06
2023-02-16T20:43:45.361Z,101552.41
2023-02-16T20:46:13.414Z,101547.94
2023-02-16T20:48:40.300Z,101549.69
2023-02-16T20:51:08.046Z,101559.13
2023-02-16T20:53:35.259Z,101553.56
2023-02-16T20:56:04.983Z,101555.28
2023-02-16T20:58:32.096Z,101551.41
2023-02-16T21:00:58.655Z,101545.81
2023-02-16T21:03:26.102Z,101540.09
2023-02-16T21:05:53.389Z,101539.28
2023-02-16T21:08:20.402Z,101534.22
2023-02-16T21:10:46.991Z,101538.38
2023-02-16T21:13:13.522Z,101535.97
2023-02-16T21:15:40.453Z,101528.03
2023-02-16T21:18:06.936Z,101530.94
2023-02-16T21:20:33.440Z,101531.59
2023-02-16T21:23:03.396Z,101536.06
2023-02-16T21:25:30.545Z,101523.97
2023-02-16T21:27:57.046Z,101524.16
2023-02-16T21:30:23.569Z,101528.44
2023-02-16T21:32:50.533Z,101529.09
2023-02-16T21:35:18.120Z,101531.00
2023-02-16T21:37:44.610Z,101528.94
2023-02-16T21:40:30.441Z,101523.06
2023-02-16T21:42:56.985Z,101520.03
2023-02-16T21:45:23.493Z,101514.94
2023-02-16T21:48:09.171Z,101511.28
2023-02-16T21:50:38.955Z,101504.28
2023-02-16T21:53:05.842Z,101509.25
2023-02-16T21:55:50.986Z,101500.97
2023-02-16T21:58:17.780Z,101497.94
2023-02-16T22:00:44.834Z,101487.59
2023-02-16T22:03:12.495Z,101481.88
2023-02-16T22:05:39.018Z,101477.09
2023-02-16T22:08:06.056Z,101482.34
2023-02-16T22:10:34.214Z,101485.03
2023-02-16T22:13:01.059Z,101490.50
2023-02-16T22:15:27.641Z,101493.00
2023-02-16T22:17:54.182Z,101484.91
2023-02-16T22:20:21.148Z,101475.97
2023-02-16T22:22:47.943Z,101475.19
2023-02-16T22:25:14.427Z,101472.50
2023-02-16T22:27:41.277Z,101465.16
2023-02-16T22:30:08.598Z,101458.16
2023-02-16T22:32:35.104Z,101464.22
2023-02-16T22:35:01.796Z,101471.09
2023-02-16T22:37:28.470Z,101469.47
2023-02-16T22:39:55.201Z,101456.31
2023-02-16T22:42:22.476Z,101458.19
2023-02-16T22:44:49.333Z,101465.50
2023-02-16T22:47:16.040Z,101468.56
2023-02-16T22:49:42.713Z,101475.88
2023-02-16T22:52:11.310Z,101466.19
2023-02-16T22:54:37.901Z,101466.19
2023-02-16T22:57:04.627Z,101473.16
2023-02-16T22:59:31.491Z,101470.16
2023-02-16T23:01:57.991Z,101467.13
2023-02-16T23:04:27.672Z,101458.53
2023-02-16T23:06:54.181Z,101459.66
2023-02-16T23:09:22.067Z,101453.13
2023-02-16T23:11:49.400Z,101452.47
2023-02-16T23:14:16.665Z,101451.22
2023-02-16T23:16:47.630Z,101459.66
2023-02-16T23:19:16.766Z,101452.66
2023-02-16T23:21:43.457Z,101454.09
2023-02-16T23:24:15.580Z,101451.88
2023-02-16T23:26:42.352Z,101450.44
2023-02-16T23:29:09.418Z,101450.75
2023-02-16T23:31:38.252Z,101442.00
2023-02-16T23:34:05.843Z,101444.41
2023-02-16T23:36:33.390Z,101440.75
2023-02-16T23:39:10.518Z,101449.66
2023-02-16T23:41:36.999Z,101445.34
2023-02-16T23:44:04.673Z,101444.88
2023-02-16T23:46:31.377Z,101443.31
2023-02-16T23:48:58.325Z,101448.72
2023-02-16T23:51:24.937Z,101446.19
2023-02-16T23:53:51.572Z,101445.53
2023-02-16T23:56:20.895Z,101449.16
2023-02-16T23:58:47.625Z,101451.41
